sensor_id;sensor_type;location;lat;lon;timestamp;pressure;altitude;pressure_sealevel;temperature
61703;BMP280;47622;47.726;3.298;2023-08-24T00:01:10;99007.06;;;22.73
61703;BMP280;47622;47.726;3.298;2023-08-24T00:03:37;99010.16;;;22.68
61703;BMP280;47622;47.726;3.298;2023-08-24T00:06:03;99005.59;;;22.58
61703;BMP280;47622;47.726;3.298;2023-08-24T00:08:29;98995.63;;;22.62
61703;BMP280;47622;47.726;3.298;2023-08-24T00:10:54;98995.63;;;22.62
61703;BMP280;47622;47.726;3.298;2023-08-24T00:13:20;98993.34;;;22.64
61703;BMP280;47622;47.726;3.298;2023-08-24T00:15:46;98981.88;;;22.67
61703;BMP280;47622;47.726;3.298;2023-08-24T00:18:12;98976.56;;;22.60
61703;BMP280;47622;47.726;3.298;2023-08-24T00:20:37;98974.69;;;22.54
61703;BMP280;47622;47.726;3.298;2023-08-24T00:23:03;98976.19;;;22.55
61703;BMP280;47622;47.726;3.298;2023-08-24T00:25:30;98975.03;;;22.52
61703;BMP280;47622;47.726;3.298;2023-08-24T00:27:56;98967.84;;;22.46
61703;BMP280;47622;47.726;3.298;2023-08-24T00:30:23;98972.03;;;22.39
61703;BMP280;47622;47.726;3.298;2023-08-24T00:32:48;98985.44;;;22.25
61703;BMP280;47622;47.726;3.298;2023-08-24T00:35:14;98988.91;;;22.22
61703;BMP280;47622;47.726;3.298;2023-08-24T00:37:41;98984.69;;;22.25
61703;BMP280;47622;47.726;3.298;2023-08-24T00:40:07;98990.44;;;22.20
61703;BMP280;47622;47.726;3.298;2023-08-24T00:42:43;98983.94;;;22.21
61703;BMP280;47622;47.726;3.298;2023-08-24T00:45:12;98980.53;;;22.10
61703;BMP280;47622;47.726;3.298;2023-08-24T00:47:39;98976.69;;;22.18
61703;BMP280;47622;47.726;3.298;2023-08-24T00:50:07;98970.97;;;22.23
61703;BMP280;47622;47.726;3.298;2023-08-24T00:52:33;98970.59;;;22.14
61703;BMP280;47622;47.726;3.298;2023-08-24T00:55:01;98958.03;;;22.11
61703;BMP280;47622;47.726;3.298;2023-08-24T00:57:28;98962.97;;;22.09
61703;BMP280;47622;47.726;3.298;2023-08-24T00:59:55;98966.03;;;22.03
61703;BMP280;47622;47.726;3.298;2023-08-24T01:02:21;98959.19;;;22.02
61703;BMP280;47622;47.726;3.298;2023-08-24T01:04:47;98956.50;;;22.02
61703;BMP280;47622;47.726;3.298;2023-08-24T01:07:13;98953.88;;;21.95
61703;BMP280;47622;47.726;3.298;2023-08-24T01:09:39;98955.38;;;21.89
61703;BMP280;47622;47.726;3.298;2023-08-24T01:17:23;98947.00;;;21.94
61703;BMP280;47622;47.726;3.298;2023-08-24T01:19:50;98943.16;;;21.88
61703;BMP280;47622;47.726;3.298;2023-08-24T01:25:19;98938.22;;;21.87
61703;BMP280;47622;47.726;3.298;2023-08-24T01:27:47;98932.13;;;21.86
61703;BMP280;47622;47.726;3.298;2023-08-24T01:30:15;98932.88;;;21.90
61703;BMP280;47622;47.726;3.298;2023-08-24T01:32:41;98929.09;;;21.84
61703;BMP280;47622;47.726;3.298;2023-08-24T01:35:08;98918.78;;;21.65
61703;BMP280;47622;47.726;3.298;2023-08-24T01:37:35;98920.72;;;21.54
61703;BMP280;47622;47.726;3.298;2023-08-24T01:40:14;98918.81;;;21.37
61703;BMP280;47622;47.726;3.298;2023-08-24T01:42:51;98914.22;;;21.33
61703;BMP280;47622;47.726;3.298;2023-08-24T01:45:22;98912.72;;;21.40
61703;BMP280;47622;47.726;3.298;2023-08-24T01:47:50;98925.66;;;21.45
61703;BMP280;47622;47.726;3.298;2023-08-24T01:50:17;98922.25;;;21.48
61703;BMP280;47622;47.726;3.298;2023-08-24T01:52:44;98911.53;;;21.41
61703;BMP280;47622;47.726;3.298;2023-08-24T01:55:11;98906.63;;;21.39
61703;BMP280;47622;47.726;3.298;2023-08-24T01:57:37;98909.28;;;21.21
61703;BMP280;47622;47.726;3.298;2023-08-24T02:00:04;98906.59;;;21.21
61703;BMP280;47622;47.726;3.298;2023-08-24T02:02:32;98905.84;;;21.21
61703;BMP280;47622;47.726;3.298;2023-08-24T02:04:58;98905.84;;;21.10
61703;BMP280;47622;47.726;3.298;2023-08-24T02:07:24;98905.06;;;21.17
61703;BMP280;47622;47.726;3.298;2023-08-24T02:09:50;98905.44;;;21.19
61703;BMP280;47622;47.726;3.298;2023-08-24T02:12:15;98903.97;;;21.32
61703;BMP280;47622;47.726;3.298;2023-08-24T02:14:41;98905.06;;;21.34
61703;BMP280;47622;47.726;3.298;2023-08-24T02:17:06;98914.22;;;21.19
61703;BMP280;47622;47.726;3.298;2023-08-24T02:19:32;98895.94;;;21.11
61703;BMP280;47622;47.726;3.298;2023-08-24T02:21:57;98903.53;;;21.02
61703;BMP280;47622;47.726;3.298;2023-08-24T02:24:23;98898.25;;;21.16
61703;BMP280;47622;47.726;3.298;2023-08-24T02:26:50;98903.94;;;21.11
61703;BMP280;47622;47.726;3.298;2023-08-24T02:29:15;98902.00;;;21.04
61703;BMP280;47622;47.726;3.298;2023-08-24T02:31:41;98898.19;;;20.98
61703;BMP280;47622;47.726;3.298;2023-08-24T02:34:07;98905.44;;;20.94
61703;BMP280;47622;47.726;3.298;2023-08-24T02:36:32;98902.00;;;20.90
61703;BMP280;47622;47.726;3.298;2023-08-24T02:38:59;98895.47;;;20.77
61703;BMP280;47622;47.726;3.298;2023-08-24T02:41:26;98906.53;;;20.82
61703;BMP280;47622;47.726;3.298;2023-08-24T02:43:52;98903.47;;;20.77
61703;BMP280;47622;47.726;3.298;2023-08-24T02:46:18;98905.03;;;20.85
61703;BMP280;47622;47.726;3.298;2023-08-24T02:48:44;98908.84;;;20.91
61703;BMP280;47622;47.726;3.298;2023-08-24T02:51:10;98905.78;;;20.96
61703;BMP280;47622;47.726;3.298;2023-08-24T02:53:36;98902.78;;;20.94
61703;BMP280;47622;47.726;3.298;2023-08-24T02:56:02;98905.81;;;20.89
61703;BMP280;47622;47.726;3.298;2023-08-24T02:58:28;98902.75;;;20.90
61703;BMP280;47622;47.726;3.298;2023-08-24T03:00:54;98895.13;;;20.89
61703;BMP280;47622;47.726;3.298;2023-08-24T03:03:19;98907.31;;;20.90
61703;BMP280;47622;47.726;3.298;2023-08-24T03:06:02;98897.03;;;20.92
61703;BMP280;47622;47.726;3.298;2023-08-24T03:08:29;98894.00;;;21.04
61703;BMP280;47622;47.726;3.298;2023-08-24T03:10:55;98892.88;;;21.02
61703;BMP280;47622;47.726;3.298;2023-08-24T03:13:21;98902.72;;;20.83
61703;BMP280;47622;47.726;3.298;2023-08-24T03:15:47;98897.03;;;20.78
61703;BMP280;47622;47.726;3.298;2023-08-24T03:18:13;98901.19;;;20.79
61703;BMP280;47622;47.726;3.298;2023-08-24T03:20:40;98895.13;;;20.92
61703;BMP280;47622;47.726;3.298;2023-08-24T03:23:06;98892.09;;;21.01
61703;BMP280;47622;47.726;3.298;2023-08-24T03:25:36;98890.56;;;21.04
61703;BMP280;47622;47.726;3.298;2023-08-24T03:28:03;98886.78;;;21.12
61703;BMP280;47622;47.726;3.298;2023-08-24T03:30:28;98882.19;;;20.98
61703;BMP280;47622;47.726;3.298;2023-08-24T03:32:55;98885.19;;;20.79
61703;BMP280;47622;47.726;3.298;2023-08-24T03:35:21;98886.31;;;20.71
61703;BMP280;47622;47.726;3.298;2023-08-24T03:37:47;98888.97;;;20.56
61703;BMP280;47622;47.726;3.298;2023-08-24T03:40:13;98880.53;;;20.51
61703;BMP280;47622;47.726;3.298;2023-08-24T03:42:38;98883.63;;;20.56
61703;BMP280;47622;47.726;3.298;2023-08-24T03:45:05;98880.56;;;20.54
61703;BMP280;47622;47.726;3.298;2023-08-24T03:47:30;98877.88;;;20.51
61703;BMP280;47622;47.726;3.298;2023-08-24T03:49:56;98876.00;;;20.55
61703;BMP280;47622;47.726;3.298;2023-08-24T03:52:22;98867.59;;;20.42
61703;BMP280;47622;47.726;3.298;2023-08-24T03:54:47;98869.84;;;20.40
61703;BMP280;47622;47.726;3.298;2023-08-24T03:57:14;98864.53;;;20.40
61703;BMP280;47622;47.726;3.298;2023-08-24T03:59:41;98869.19;;;20.57
61703;BMP280;47622;47.726;3.298;2023-08-24T04:02:06;98860.00;;;20.55
61703;BMP280;47622;47.726;3.298;2023-08-24T04:04:32;98859.22;;;20.47
61703;BMP280;47622;47.726;3.298;2023-08-24T04:06:58;98860.72;;;20.41
61703;BMP280;47622;47.726;3.298;2023-08-24T04:09:24;98866.81;;;20.38
61703;BMP280;47622;47.726;3.298;2023-08-24T04:11:49;98859.94;;;20.37
61703;BMP280;47622;47.726;3.298;2023-08-24T04:14:15;98866.81;;;20.38
61703;BMP280;47622;47.726;3.298;2023-08-24T04:16:41;98861.47;;;20.38
61703;BMP280;47622;47.726;3.298;2023-08-24T04:19:07;98859.94;;;20.30
61703;BMP280;47622;47.726;3.298;2023-08-24T04:21:33;98859.16;;;20.26
61703;BMP280;47622;47.726;3.298;2023-08-24T04:23:59;98856.81;;;20.17
61703;BMP280;47622;47.726;3.298;2023-08-24T04:26:25;98866.00;;;20.27
61703;BMP280;47622;47.726;3.298;2023-08-24T04:28:50;98864.78;;;20.14
61703;BMP280;47622;47.726;3.298;2023-08-24T04:31:16;98857.56;;;20.11
61703;BMP280;47622;47.726;3.298;2023-08-24T04:33:42;98865.16;;;20.09
61703;BMP280;47622;47.726;3.298;2023-08-24T04:36:07;98863.97;;;20.03
61703;BMP280;47622;47.726;3.298;2023-08-24T04:38:35;98873.56;;;20.11
61703;BMP280;47622;47.726;3.298;2023-08-24T04:41:03;98872.06;;;20.20
61703;BMP280;47622;47.726;3.298;2023-08-24T04:43:33;98875.81;;;20.12
61703;BMP280;47622;47.726;3.298;2023-08-24T04:45:58;98877.00;;;20.15
61703;BMP280;47622;47.726;3.298;2023-08-24T04:48:25;98873.16;;;20.09
61703;BMP280;47622;47.726;3.298;2023-08-24T04:50:51;98881.16;;;20.09
61703;BMP280;47622;47.726;3.298;2023-08-24T04:53:19;98881.22;;;20.23
61703;BMP280;47622;47.726;3.298;2023-08-24T04:55:46;98883.47;;;20.21
61703;BMP280;47622;47.726;3.298;2023-08-24T04:58:12;98883.47;;;20.24
61703;BMP280;47622;47.726;3.298;2023-08-24T05:00:38;98870.56;;;20.23
61703;BMP280;47622;47.726;3.298;2023-08-24T05:03:05;98880.81;;;20.24
61703;BMP280;47622;47.726;3.298;2023-08-24T05:05:32;98872.13;;;20.31
61703;BMP280;47622;47.726;3.298;2023-08-24T05:07:59;98872.88;;;20.28
61703;BMP280;47622;47.726;3.298;2023-08-24T05:10:25;98866.78;;;20.27
61703;BMP280;47622;47.726;3.298;2023-08-24T05:12:51;98872.88;;;20.28
61703;BMP280;47622;47.726;3.298;2023-08-24T05:15:17;98873.66;;;20.32
61703;BMP280;47622;47.726;3.298;2023-08-24T05:17:42;98876.69;;;20.34
61703;BMP280;47622;47.726;3.298;2023-08-24T05:20:08;98881.66;;;20.39
61703;BMP280;47622;47.726;3.298;2023-08-24T05:22:37;98871.00;;;20.32
61703;BMP280;47622;47.726;3.298;2023-08-24T05:25:03;98869.84;;;20.37
61703;BMP280;47622;47.726;3.298;2023-08-24T05:27:30;98873.28;;;20.37
61703;BMP280;47622;47.726;3.298;2023-08-24T05:29:55;98866.81;;;20.45
61703;BMP280;47622;47.726;3.298;2023-08-24T05:32:21;98869.19;;;20.57
61703;BMP280;47622;47.726;3.298;2023-08-24T05:34:47;98858.50;;;20.61
61703;BMP280;47622;47.726;3.298;2023-08-24T05:37:12;98860.03;;;20.66
61703;BMP280;47622;47.726;3.298;2023-08-24T05:39:38;98861.59;;;20.74
61703;BMP280;47622;47.726;3.298;2023-08-24T05:42:04;98853.22;;;20.79
61703;BMP280;47622;47.726;3.298;2023-08-24T05:44:30;98849.44;;;20.90
61703;BMP280;47622;47.726;3.298;2023-08-24T05:46:56;98841.06;;;21.06
61703;BMP280;47622;47.726;3.298;2023-08-24T05:49:21;98842.59;;;21.21
61703;BMP280;47622;47.726;3.298;2023-08-24T05:51:51;98844.09;;;21.37
61703;BMP280;47622;47.726;3.298;2023-08-24T05:54:17;98837.22;;;21.53
61703;BMP280;47622;47.726;3.298;2023-08-24T05:56:46;98826.50;;;21.67
61703;BMP280;47622;47.726;3.298;2023-08-24T05:59:12;98826.44;;;21.85
61703;BMP280;47622;47.726;3.298;2023-08-24T06:01:38;98821.03;;;22.07
61703;BMP280;47622;47.726;3.298;2023-08-24T06:04:08;98817.91;;;22.22
61703;BMP280;47622;47.726;3.298;2023-08-24T06:06:35;98821.59;;;22.39
61703;BMP280;47622;47.726;3.298;2023-08-24T06:09:00;98818.47;;;22.51
61703;BMP280;47622;47.726;3.298;2023-08-24T06:11:26;98813.81;;;22.62
61703;BMP280;47622;47.726;3.298;2023-08-24T06:13:51;98811.13;;;22.69
61703;BMP280;47622;47.726;3.298;2023-08-24T06:16:20;98809.13;;;22.81
61703;BMP280;47622;47.726;3.298;2023-08-24T06:18:46;98803.72;;;22.88
61703;BMP280;47622;47.726;3.298;2023-08-24T06:21:12;98812.44;;;22.95
61703;BMP280;47622;47.726;3.298;2023-08-24T06:23:38;98809.72;;;22.99
61703;BMP280;47622;47.726;3.298;2023-08-24T06:26:04;98807.00;;;23.06
61703;BMP280;47622;47.726;3.298;2023-08-24T06:28:30;98806.59;;;23.04
61703;BMP280;47622;47.726;3.298;2023-08-24T06:30:56;98811.94;;;23.11
61703;BMP280;47622;47.726;3.298;2023-08-24T06:33:27;98811.50;;;23.16
61703;BMP280;47622;47.726;3.298;2023-08-24T06:35:56;98817.06;;;23.32
61703;BMP280;47622;47.726;3.298;2023-08-24T06:38:22;98809.25;;;23.48
61703;BMP280;47622;47.726;3.298;2023-08-24T06:40:47;98811.44;;;23.57
61703;BMP280;47622;47.726;3.298;2023-08-24T06:43:13;98800.53;;;23.75
61703;BMP280;47622;47.726;3.298;2023-08-24T06:45:40;98803.72;;;23.93
61703;BMP280;47622;47.726;3.298;2023-08-24T06:48:05;98810.13;;;24.30
61703;BMP280;47622;47.726;3.298;2023-08-24T06:50:33;98816.41;;;24.43
61703;BMP280;47622;47.726;3.298;2023-08-24T06:52:58;98809.00;;;24.54
61703;BMP280;47622;47.726;3.298;2023-08-24T06:55:26;98818.78;;;24.64
61703;BMP280;47622;47.726;3.298;2023-08-24T06:57:52;98818.09;;;24.83
61703;BMP280;47622;47.726;3.298;2023-08-24T07:00:19;98816.50;;;25.09
61703;BMP280;47622;47.726;3.298;2023-08-24T07:02:46;98818.19;;;25.23
61703;BMP280;47622;47.726;3.298;2023-08-24T07:05:12;98810.13;;;25.23
61703;BMP280;47622;47.726;3.298;2023-08-24T07:07:38;98807.66;;;25.32
61703;BMP280;47622;47.726;3.298;2023-08-24T07:10:04;98808.94;;;25.24
61703;BMP280;47622;47.726;3.298;2023-08-24T07:12:31;98800.25;;;25.36
61703;BMP280;47622;47.726;3.298;2023-08-24T07:14:57;98806.81;;;25.55
61703;BMP280;47622;47.726;3.298;2023-08-24T07:17:22;98812.03;;;25.62
61703;BMP280;47622;47.726;3.298;2023-08-24T07:19:48;98812.91;;;25.75
61703;BMP280;47622;47.726;3.298;2023-08-24T07:22:14;98820.63;;;25.93
61703;BMP280;47622;47.726;3.298;2023-08-24T07:24:39;98808.03;;;26.06
61703;BMP280;47622;47.726;3.298;2023-08-24T07:27:05;98816.03;;;26.26
61703;BMP280;47622;47.726;3.298;2023-08-24T07:29:30;98813.66;;;26.28
61703;BMP280;47622;47.726;3.298;2023-08-24T07:31:56;98823.09;;;26.52
61703;BMP280;47622;47.726;3.298;2023-08-24T07:34:22;98820.81;;;26.51
61703;BMP280;47622;47.726;3.298;2023-08-24T07:36:48;98825.50;;;26.63
61703;BMP280;47622;47.726;3.298;2023-08-24T07:39:15;98829.50;;;27.03
61703;BMP280;47622;47.726;3.298;2023-08-24T07:41:41;98822.94;;;27.46
61703;BMP280;47622;47.726;3.298;2023-08-24T07:44:07;98814.78;;;27.87
61703;BMP280;47622;47.726;3.298;2023-08-24T07:46:33;98827.09;;;28.14
61703;BMP280;47622;47.726;3.298;2023-08-24T07:48:59;98816.88;;;28.43
61703;BMP280;47622;47.726;3.298;2023-08-24T07:51:24;98811.59;;;28.96
61703;BMP280;47622;47.726;3.298;2023-08-24T07:53:50;98809.41;;;29.34
61703;BMP280;47622;47.726;3.298;2023-08-24T07:56:18;98815.81;;;29.98
61703;BMP280;47622;47.726;3.298;2023-08-24T07:58:44;98816.53;;;31.27
61703;BMP280;47622;47.726;3.298;2023-08-24T08:01:10;98808.66;;;33.01
61703;BMP280;47622;47.726;3.298;2023-08-24T08:03:36;98809.47;;;33.97
61703;BMP280;47622;47.726;3.298;2023-08-24T08:06:02;98809.53;;;34.48
61703;BMP280;47622;47.726;3.298;2023-08-24T08:08:27;98801.81;;;35.09
61703;BMP280;47622;47.726;3.298;2023-08-24T08:11:02;98788.63;;;36.60
61703;BMP280;47622;47.726;3.298;2023-08-24T08:13:29;98785.56;;;37.65
61703;BMP280;47622;47.726;3.298;2023-08-24T08:16:05;98787.78;;;38.38
61703;BMP280;47622;47.726;3.298;2023-08-24T08:18:32;98788.94;;;38.77
61703;BMP280;47622;47.726;3.298;2023-08-24T08:20:57;98798.16;;;39.42
61703;BMP280;47622;47.726;3.298;2023-08-24T08:23:23;98800.09;;;39.97
61703;BMP280;47622;47.726;3.298;2023-08-24T08:25:48;98784.72;;;38.76
61703;BMP280;47622;47.726;3.298;2023-08-24T08:28:14;98768.19;;;36.83
61703;BMP280;47622;47.726;3.298;2023-08-24T08:30:39;98774.56;;;35.80
61703;BMP280;47622;47.726;3.298;2023-08-24T08:33:05;98763.97;;;34.86
61703;BMP280;47622;47.726;3.298;2023-08-24T08:35:31;98766.59;;;34.17
61703;BMP280;47622;47.726;3.298;2023-08-24T08:37:56;98758.28;;;33.40
61703;BMP280;47622;47.726;3.298;2023-08-24T08:40:24;98743.59;;;32.82
61703;BMP280;47622;47.726;3.298;2023-08-24T08:42:56;98739.28;;;32.91
61703;BMP280;47622;47.726;3.298;2023-08-24T08:45:25;98738.56;;;32.75
61703;BMP280;47622;47.726;3.298;2023-08-24T08:47:53;98735.19;;;32.51
61703;BMP280;47622;47.726;3.298;2023-08-24T08:50:21;98741.56;;;32.48
61703;BMP280;47622;47.726;3.298;2023-08-24T08:52:47;98747.72;;;32.78
61703;BMP280;47622;47.726;3.298;2023-08-24T08:55:12;98752.38;;;33.07
61703;BMP280;47622;47.726;3.298;2023-08-24T08:57:40;98747.31;;;33.00
61703;BMP280;47622;47.726;3.298;2023-08-24T09:00:12;98754.28;;;33.01
61703;BMP280;47622;47.726;3.298;2023-08-24T09:02:43;98751.56;;;33.01
61703;BMP280;47622;47.726;3.298;2023-08-24T09:05:10;98747.16;;;32.88
61703;BMP280;47622;47.726;3.298;2023-08-24T09:07:36;98749.44;;;32.75
61703;BMP280;47622;47.726;3.298;2023-08-24T09:10:05;98754.56;;;32.88
61703;BMP280;47622;47.726;3.298;2023-08-24T09:12:32;98760.09;;;32.94
61703;BMP280;47622;47.726;3.298;2023-08-24T09:15:05;98768.47;;;33.25
61703;BMP280;47622;47.726;3.298;2023-08-24T09:17:32;98784.47;;;34.44
61703;BMP280;47622;47.726;3.298;2023-08-24T09:19:59;98781.63;;;36.03
61703;BMP280;47622;47.726;3.298;2023-08-24T09:22:25;98770.66;;;35.92
61703;BMP280;47622;47.726;3.298;2023-08-24T09:24:50;98765.69;;;35.90
61703;BMP280;47622;47.726;3.298;2023-08-24T09:27:18;98763.22;;;35.87
61703;BMP280;47622;47.726;3.298;2023-08-24T09:29:51;98754.13;;;35.47
61703;BMP280;47622;47.726;3.298;2023-08-24T09:32:24;98765.13;;;34.74
61703;BMP280;47622;47.726;3.298;2023-08-24T09:34:50;98763.44;;;34.50
61703;BMP280;47622;47.726;3.298;2023-08-24T09:37:16;98744.44;;;34.04
61703;BMP280;47622;47.726;3.298;2023-08-24T09:39:42;98757.19;;;33.72
61703;BMP280;47622;47.726;3.298;2023-08-24T09:42:08;98745.91;;;33.39
61703;BMP280;47622;47.726;3.298;2023-08-24T09:44:34;98741.75;;;33.44
61703;BMP280;47622;47.726;3.298;2023-08-24T09:46:59;98746.81;;;34.17
61703;BMP280;47622;47.726;3.298;2023-08-24T09:49:25;98738.03;;;35.49
61703;BMP280;47622;47.726;3.298;2023-08-24T09:51:56;98739.16;;;36.24
61703;BMP280;47622;47.726;3.298;2023-08-24T09:54:28;98734.69;;;36.21
61703;BMP280;47622;47.726;3.298;2023-08-24T09:56:58;98740.75;;;37.16
61703;BMP280;47622;47.726;3.298;2023-08-24T09:59:26;98743.53;;;37.57
61703;BMP280;47622;47.726;3.298;2023-08-24T10:01:54;98740.22;;;38.05
61703;BMP280;47622;47.726;3.298;2023-08-24T10:04:24;98744.41;;;38.42
61703;BMP280;47622;47.726;3.298;2023-08-24T10:06:55;98745.88;;;38.43
61703;BMP280;47622;47.726;3.298;2023-08-24T10:09:31;98754.34;;;38.45
61703;BMP280;47622;47.726;3.298;2023-08-24T10:12:02;98754.31;;;38.20
61703;BMP280;47622;47.726;3.298;2023-08-24T10:14:32;98747.13;;;37.35
61703;BMP280;47622;47.726;3.298;2023-08-24T10:16:59;98746.09;;;36.64
61703;BMP280;47622;47.726;3.298;2023-08-24T10:19:25;98753.34;;;36.51
61703;BMP280;47622;47.726;3.298;2023-08-24T10:21:53;98743.16;;;36.18
61703;BMP280;47622;47.726;3.298;2023-08-24T10:24:22;98742.34;;;36.06
61703;BMP280;47622;47.726;3.298;2023-08-24T10:26:48;98737.69;;;36.29
61703;BMP280;47622;47.726;3.298;2023-08-24T10:29:16;98738.16;;;36.50
61703;BMP280;47622;47.726;3.298;2023-08-24T10:31:42;98741.63;;;36.06
61703;BMP280;47622;47.726;3.298;2023-08-24T10:34:08;98735.91;;;35.87
61703;BMP280;47622;47.726;3.298;2023-08-24T10:36:34;98739.56;;;35.73
61703;BMP280;47622;47.726;3.298;2023-08-24T10:39:03;98753.16;;;35.50
61703;BMP280;47622;47.726;3.298;2023-08-24T10:42:04;98760.44;;;35.22
61703;BMP280;47622;47.726;3.298;2023-08-24T10:44:36;98743.25;;;34.99
61703;BMP280;47622;47.726;3.298;2023-08-24T10:47:27;98739.88;;;34.79
61703;BMP280;47622;47.726;3.298;2023-08-24T10:52:30;98754.50;;;34.18
61703;BMP280;47622;47.726;3.298;2023-08-24T10:54:57;98748.59;;;34.00
61703;BMP280;47622;47.726;3.298;2023-08-24T10:57:36;98754.94;;;34.11
61703;BMP280;47622;47.726;3.298;2023-08-24T11:02:49;98769.00;;;34.10
61703;BMP280;47622;47.726;3.298;2023-08-24T11:07:51;98776.16;;;34.07
61703;BMP280;47622;47.726;3.298;2023-08-24T11:10:18;98770.41;;;33.80
61703;BMP280;47622;47.726;3.298;2023-08-24T11:15:47;98770.56;;;33.70
61703;BMP280;47622;47.726;3.298;2023-08-24T11:18:20;98767.34;;;33.72
61703;BMP280;47622;47.726;3.298;2023-08-24T11:21:09;98775.44;;;33.66
61703;BMP280;47622;47.726;3.298;2023-08-24T11:23:35;98766.09;;;33.53
61703;BMP280;47622;47.726;3.298;2023-08-24T11:26:02;98764.94;;;33.39
61703;BMP280;47622;47.726;3.298;2023-08-24T11:28:28;98771.69;;;33.09
61703;BMP280;47622;47.726;3.298;2023-08-24T11:30:56;98794.31;;;32.85
61703;BMP280;47622;47.726;3.298;2023-08-24T11:33:34;98800.59;;;32.09
61703;BMP280;47622;47.726;3.298;2023-08-24T11:36:02;98822.31;;;31.52
61703;BMP280;47622;47.726;3.298;2023-08-24T11:38:41;98841.22;;;31.29
61703;BMP280;47622;47.726;3.298;2023-08-24T11:41:15;98865.41;;;30.90
61703;BMP280;47622;47.726;3.298;2023-08-24T11:43:45;98890.97;;;30.53
61703;BMP280;47622;47.726;3.298;2023-08-24T11:46:15;98886.50;;;29.70
61703;BMP280;47622;47.726;3.298;2023-08-24T11:48:43;98897.00;;;29.46
61703;BMP280;47622;47.726;3.298;2023-08-24T11:51:13;98902.88;;;29.01
61703;BMP280;47622;47.726;3.298;2023-08-24T11:53:43;98916.44;;;28.41
61703;BMP280;47622;47.726;3.298;2023-08-24T11:56:09;98928.06;;;28.13
61703;BMP280;47622;47.726;3.298;2023-08-24T11:58:43;98938.28;;;27.80
61703;BMP280;47622;47.726;3.298;2023-08-24T12:01:13;98937.78;;;27.69
61703;BMP280;47622;47.726;3.298;2023-08-24T12:03:39;98929.19;;;27.45
61703;BMP280;47622;47.726;3.298;2023-08-24T12:06:15;98906.13;;;27.44
61703;BMP280;47622;47.726;3.298;2023-08-24T12:08:45;98885.16;;;27.23
61703;BMP280;47622;47.726;3.298;2023-08-24T12:11:15;98879.69;;;27.26
61703;BMP280;47622;47.726;3.298;2023-08-24T12:13:49;98909.50;;;27.19
61703;BMP280;47622;47.726;3.298;2023-08-24T12:16:16;98958.72;;;27.36
61703;BMP280;47622;47.726;3.298;2023-08-24T12:18:52;99007.53;;;27.21
61703;BMP280;47622;47.726;3.298;2023-08-24T12:21:19;99045.59;;;27.07
61703;BMP280;47622;47.726;3.298;2023-08-24T12:23:54;99091.50;;;26.84
61703;BMP280;47622;47.726;3.298;2023-08-24T12:26:20;99131.00;;;26.71
61703;BMP280;47622;47.726;3.298;2023-08-24T12:28:51;99126.13;;;26.46
61703;BMP280;47622;47.726;3.298;2023-08-24T12:31:24;99123.94;;;26.37
61703;BMP280;47622;47.726;3.298;2023-08-24T12:34:22;99056.97;;;26.23
61703;BMP280;47622;47.726;3.298;2023-08-24T12:36:49;99001.09;;;25.91
61703;BMP280;47622;47.726;3.298;2023-08-24T12:39:16;98949.91;;;25.79
61703;BMP280;47622;47.726;3.298;2023-08-24T12:41:41;98885.88;;;25.54
61703;BMP280;47622;47.726;3.298;2023-08-24T12:44:07;98813.63;;;25.20
61703;BMP280;47622;47.726;3.298;2023-08-24T12:46:34;98878.09;;;24.97
61703;BMP280;47622;47.726;3.298;2023-08-24T12:51:22;98993.44;;;23.68
61703;BMP280;47622;47.726;3.298;2023-08-24T12:53:50;98971.31;;;23.12
61703;BMP280;47622;47.726;3.298;2023-08-24T12:56:15;99002.31;;;23.06
61703;BMP280;47622;47.726;3.298;2023-08-24T13:09:15;98994.88;;;22.65
61703;BMP280;47622;47.726;3.298;2023-08-24T13:19:23;98926.03;;;22.80
61703;BMP280;47622;47.726;3.298;2023-08-24T13:22:09;98902.25;;;22.93
61703;BMP280;47622;47.726;3.298;2023-08-24T13:24:35;98897.66;;;22.93
61703;BMP280;47622;47.726;3.298;2023-08-24T13:27:01;98860.19;;;22.97
61703;BMP280;47622;47.726;3.298;2023-08-24T13:29:28;98862.19;;;22.86
61703;BMP280;47622;47.726;3.298;2023-08-24T13:31:55;98840.31;;;22.94
61703;BMP280;47622;47.726;3.298;2023-08-24T13:34:20;98812.78;;;23.01
61703;BMP280;47622;47.726;3.298;2023-08-24T13:36:46;98828.66;;;23.22
61703;BMP280;47622;47.726;3.298;2023-08-24T13:39:12;98834.34;;;23.24
61703;BMP280;47622;47.726;3.298;2023-08-24T13:41:37;98844.50;;;23.43
61703;BMP280;47622;47.726;3.298;2023-08-24T13:44:03;98851.13;;;23.69
61703;BMP280;47622;47.726;3.298;2023-08-24T13:46:29;98882.81;;;24.05
61703;BMP280;47622;47.726;3.298;2023-08-24T13:48:54;98927.75;;;24.28
61703;BMP280;47622;47.726;3.298;2023-08-24T13:51:20;98957.97;;;24.28
61703;BMP280;47622;47.726;3.298;2023-08-24T13:53:47;98951.63;;;24.49
61703;BMP280;47622;47.726;3.298;2023-08-24T13:56:14;98960.31;;;24.83
61703;BMP280;47622;47.726;3.298;2023-08-24T13:58:39;98974.00;;;25.16
61703;BMP280;47622;47.726;3.298;2023-08-24T14:01:05;98942.38;;;25.27
61703;BMP280;47622;47.726;3.298;2023-08-24T14:03:31;98944.66;;;25.52
61703;BMP280;47622;47.726;3.298;2023-08-24T14:05:57;98936.94;;;25.74
61703;BMP280;47622;47.726;3.298;2023-08-24T14:08:23;98946.41;;;25.82
61703;BMP280;47622;47.726;3.298;2023-08-24T14:10:49;98937.94;;;26.03
61703;BMP280;47622;47.726;3.298;2023-08-24T14:13:15;98926.25;;;26.10
61703;BMP280;47622;47.726;3.298;2023-08-24T14:15:41;98925.19;;;26.23
61703;BMP280;47622;47.726;3.298;2023-08-24T14:18:06;98941.22;;;26.63
61703;BMP280;47622;47.726;3.298;2023-08-24T14:20:33;98970.28;;;26.88
61703;BMP280;47622;47.726;3.298;2023-08-24T14:22:58;99017.28;;;26.67
61703;BMP280;47622;47.726;3.298;2023-08-24T14:25:24;99017.75;;;26.26
61703;BMP280;47622;47.726;3.298;2023-08-24T14:27:49;99003.25;;;26.00
61703;BMP280;47622;47.726;3.298;2023-08-24T14:30:15;99032.50;;;25.98
61703;BMP280;47622;47.726;3.298;2023-08-24T14:32:41;99008.69;;;25.53
61703;BMP280;47622;47.726;3.298;2023-08-24T14:35:07;99063.34;;;25.43
61703;BMP280;47622;47.726;3.298;2023-08-24T14:37:33;99095.66;;;24.82
61703;BMP280;47622;47.726;3.298;2023-08-24T14:39:59;99108.66;;;24.50
61703;BMP280;47622;47.726;3.298;2023-08-24T14:42:24;99096.56;;;24.38
61703;BMP280;47622;47.726;3.298;2023-08-24T14:44:50;99078.19;;;23.96
61703;BMP280;47622;47.726;3.298;2023-08-24T14:47:16;98999.84;;;23.81
61703;BMP280;47622;47.726;3.298;2023-08-24T14:49:41;98980.47;;;23.63